AirNav   Everest Fuels
 
 1074 users online  

FA98 North Collier Hospital Heliport
Naples, Florida, USA

GOING TO NAPLES?


FAA INFORMATION EFFECTIVE 13 AUGUST 2020

Location

FAA Identifier: FA98
Lat/Long: 26-16-25.8300N 081-47-16.3400W
26-16.430500N 081-47.272333W
26.2738417,-81.7878722
(estimated)
Elevation: 7.4 ft. / 2 m (estimated)
From city: 8 miles S of NAPLES, FL
Time zone: UTC -4 (UTC -5 during Standard Time)
Zip code: 34110

Heliport Operations

Heliport use: Private use. Permission required prior to landing
Activation date: 12/2016
Control tower: no
ARTCC: MIAMI CENTER
FSS: MIAMI FLIGHT SERVICE STATION
Attendance: 
Wind indicator: lighted
Segmented circle: no

Heliport Communications

WX ASOS at APF (7 nm S): 134.225 (239-643-9886)
WX ASOS at RSW (16 nm N): PHONE 239-561-0966
WX AWOS-3PT at MKY (18 nm S): 120.075 (239-394-8187)
WX ASOS at FMY (19 nm N): 123.725 (239-936-2318)

Nearby radio navigation aids

VOR radial/distance  VOR name  Freq  Var
CYYr359/7.2CYPRESS VOR/DME108.6003W
RSWr184/15.4LEE COUNTY VORTAC111.8002W
LBVr212/39.5LA BELLE VORTAC110.4001E

Heliport Services

Runway Information

Helipad H1

Dimensions: 44 x 44 ft. / 13 x 13 m
Surface: concrete
Runway edge lights: PERI
Traffic pattern: leftleft

Heliport Ownership and Management from official FAA records

Ownership: Privately-owned
Owner: HEALTHCARE SYSTEMS INC
350 7TH ST NORTH
NAPLES, FL 34102
Phone 239-624-2855
Manager: JOHN GRIFFITH
350 7TH ST NORTH
NAPLES, FL 34102
Phone 239-624-2855

Additional Remarks

FOR CD CTC FORT MYERS APCH AT 239-768-1377, WHEN APCH CLSD CTC MIAMI ARTCC AT 305-716-1731.

Instrument Procedures

There are no published instrument procedures at FA98.

Some nearby airports with instrument procedures:

KAPF - Naples Municipal Airport (7 nm S)
KRSW - Southwest Florida International Airport (16 nm N)
KMKY - Marco Island Executive Airport (18 nm S)
KFMY - Page Field Airport (19 nm N)
KIMM - Immokalee Regional Airport (23 nm NE)
 
Loc | Ops | Rwys | IFR | FBO | Links
Com | Nav | Svcs | Stats | Notes
Aerial photo
No photo
 
Airport distance calculator
Flying to North Collier Hospital Heliport? Find the distance to fly.

From to FA98

Sunrise and sunset
Times for 14-Aug-2020
 Local
(UTC-4)
 Zulu
(UTC)
Morning civil twilight06:3610:36
Sunrise07:0011:00
Sunset20:0300:03
Evening civil twilight20:2700:27

Current date and time
Zulu (UTC)  15-Aug-2020 01:23:06
Local (UTC-4)  14-Aug-2020 21:23:06
 
METAR
KAPF 
9nm S 
150053Z 08003KT 10SM CLR 28/24 A2998 RMK AO2 SLP150 T02780239
KRSW 
16nm N 
150053Z 36004KT 10SM VCTS FEW085 26/24 A2999 RMK AO2 SLP154 T02610244
KMKY 
18nm S 
150056Z AUTO 00000KT 10SM CLR 27/24 A2999 RMK AO2 SLP156 T02670244 TSNO $
KFMY 
19nm N 
150053Z 00000KT 10SM CLR 26/25 A2998 RMK AO2 SLP155 T02560250
TAF
KAPF 
9nm S 
142107Z 1421/1518 24008KT P6SM VCTS FEW025CB BKN060 FM142200 24008KT P6SM SCT030 BKN200 FM150100 VRB03KT P6SM FEW250 FM151400 16006KT P6SM SCT035
KRSW 
16nm N 
141720Z 1418/1518 25006KT P6SM VCTS SCT040CB SCT250 TEMPO 1419/1423 VRB15G25KT 3SM TSRA BKN025CB FM150100 VRB03KT P6SM SCT040 SCT100 BKN250 FM150600 00000KT P6SM FEW035 SCT250 FM151400 20005KT P6SM SCT035 SCT250
KFMY 
19nm N 
141720Z 1418/1518 25007KT P6SM VCTS SCT040CB SCT250 TEMPO 1419/1423 VRB15G25KT 3SM TSRA BKN025CB FM150100 VRB03KT P6SM SCT040 SCT100 BKN250 FM150600 00000KT P6SM FEW035 SCT250 FM151400 20005KT P6SM SCT035 SCT250
NOTAMs
Click for the latest NOTAMs
NOTAMs are issued by the DoD/FAA and will open in a separate window not controlled by AirNav.

 

 
 

Would you like to see your business listed on this page?

 If your business provides an interesting product or service to pilots, flight crews, aircraft, or users of the North Collier Hospital Heliport, you should consider listing it here.  To start the listing process, click on the button below
 
Add a business
 

Other Pages about North Collier Hospital Heliport

Update a link
 
Copyright © AirNav, LLC. All rights reserved. Privacy Policy  Contact